Time;durP1;ratioP1;P1;durP2;ratioP2;P2;SDS_P1;SDS_P2;PMS_P1;PMS_P2;Temp;Humidity;BMP_temperature;BMP_pressure;BME280_temperature;BME280_humidity;BME280_pressure;Samples;Min_cycle;Max_cycle;Signal;HPM_P1;HPM_P2
2021/01/15 00:01:10;;;;;;;21.13;11.93;;;;;;;-144.99;100.00;52578.53;5067293;28;20678;-72
2021/01/15 00:03:37;;;;;;;12.83;9.77;;;;;;;-144.99;100.00;52582.63;5052921;28;20627;-74
2021/01/15 00:06:05;;;;;;;14.47;9.97;;;;;;;-144.99;100.00;52578.53;5068088;28;20715;-73
2021/01/15 00:08:33;;;;;;;14.57;10.37;;;;;;;-144.99;100.00;52550.00;5068706;28;20684;-74
2021/01/15 00:11:00;;;;;;;18.33;12.43;;;;;;;-144.99;100.00;52582.63;5070090;28;20671;-72
2021/01/15 00:13:26;;;;;;;16.97;11.57;;;;;;;-144.99;100.00;52558.16;5066356;28;20619;-74
2021/01/15 00:15:52;;;;;;;13.43;10.83;;;;;;;-144.99;100.00;52574.47;5070246;28;20626;-75
2021/01/15 00:18:18;;;;;;;13.97;11.27;;;;;;;-144.99;100.00;52578.53;5068868;28;20718;-72
2021/01/15 00:20:45;;;;;;;14.73;10.90;;;;;;;-144.99;100.00;52611.16;5069084;28;20722;-72
2021/01/15 00:23:11;;;;;;;14.23;9.90;;;;;;;-144.99;100.00;52570.38;5065271;28;20725;-73
2021/01/15 00:25:38;;;;;;;17.30;12.17;;;;;;;-144.99;100.00;52564.28;5064750;28;20725;-73
2021/01/15 00:28:04;;;;;;;16.03;12.07;;;;;;;-144.99;100.00;52582.63;5078587;28;20701;-73
2021/01/15 00:30:30;;;;;;;19.17;13.30;;;;;;;-144.99;100.00;52582.63;5063493;28;21026;-72
2021/01/15 00:32:56;;;;;;;18.50;11.50;;;;;;;-144.99;100.00;52611.16;5069101;28;20778;-73
2021/01/15 00:35:23;;;;;;;14.13;10.77;;;;;;;-144.99;100.00;52554.09;5065305;28;20730;-73
2021/01/15 00:37:49;;;;;;;15.57;10.70;;;;;;;-144.99;100.00;52619.31;5071350;28;21060;-74
2021/01/15 00:40:16;;;;;;;15.53;10.70;;;;;;;-144.99;100.00;52611.16;5058988;28;20633;-75
2021/01/15 00:42:43;;;;;;;14.17;10.90;;;;;;;-144.99;100.00;52574.47;5056590;28;20658;-76
2021/01/15 00:45:10;;;;;;;13.30;10.20;;;;;;;-144.99;100.00;52578.53;5064178;28;21382;-75
2021/01/15 00:47:36;;;;;;;15.67;11.00;;;;;;;-144.99;100.00;52562.25;5050535;28;20628;-75
2021/01/15 00:50:03;;;;;;;17.80;11.67;;;;;;;-144.99;100.00;52580.59;5047673;28;21061;-74
2021/01/15 00:52:29;;;;;;;19.27;12.87;;;;;;;-144.99;100.00;52576.50;5067785;28;20659;-73
2021/01/15 00:54:55;;;;;;;14.77;11.87;;;;;;;-144.99;100.00;52586.69;5063974;28;20723;-73
2021/01/15 00:57:21;;;;;;;14.17;9.97;;;;;;;-144.99;100.00;52578.53;5068476;28;20639;-75
2021/01/15 00:59:48;;;;;;;15.20;11.20;;;;;;;-144.99;100.00;52596.88;5068477;28;21404;-75
2021/01/15 01:02:14;;;;;;;13.30;10.57;;;;;;;-144.99;100.00;52576.50;5050764;28;21034;-74
2021/01/15 01:04:40;;;;;;;14.93;11.07;;;;;;;-144.99;100.00;52598.94;5060721;28;20757;-72
2021/01/15 01:07:07;;;;;;;17.50;11.17;;;;;;;-144.99;100.00;52586.69;5061412;28;20662;-74
2021/01/15 01:09:33;;;;;;;13.60;10.77;;;;;;;-144.99;100.00;52586.69;5073028;28;20627;-74
2021/01/15 01:11:59;;;;;;;16.87;12.73;;;;;;;-144.99;100.00;52590.78;5071111;28;20702;-74
2021/01/15 01:14:25;;;;;;;16.20;10.90;;;;;;;-144.99;100.00;52582.63;5063319;28;20659;-73
2021/01/15 01:16:52;;;;;;;14.10;11.73;;;;;;;-144.99;100.00;52594.84;5053413;28;21120;-74
2021/01/15 01:19:18;;;;;;;16.87;11.60;;;;;;;-144.99;100.00;52590.78;5060008;28;21218;-74
2021/01/15 01:21:44;;;;;;;17.17;11.73;;;;;;;-144.99;100.00;52529.63;5048937;28;21267;-74
2021/01/15 01:24:11;;;;;;;19.67;11.40;;;;;;;-144.99;100.00;52619.31;5087001;22;21255;-73
2021/01/15 01:26:37;;;;;;;16.67;12.27;;;;;;;-144.99;100.00;52572.44;5065917;28;20727;-74
2021/01/15 01:29:03;;;;;;;16.97;11.23;;;;;;;-144.99;100.00;52570.38;5063456;28;20630;-71
2021/01/15 01:31:29;;;;;;;13.93;12.43;;;;;;;-144.99;100.00;52560.19;5065261;28;20750;-71
2021/01/15 01:33:56;;;;;;;19.60;12.97;;;;;;;-144.99;100.00;52598.94;5061229;28;21442;-72
2021/01/15 01:36:22;;;;;;;19.60;11.67;;;;;;;-144.99;100.00;52586.69;5072942;28;20768;-70
2021/01/15 01:38:48;;;;;;;20.60;12.10;;;;;;;-144.99;100.00;52582.63;5065985;28;20651;-71
2021/01/15 01:41:15;;;;;;;13.03;10.53;;;;;;;-144.99;100.00;52613.19;5066390;28;20630;-72
2021/01/15 01:43:41;;;;;;;18.43;10.97;;;;;;;-144.99;100.00;52558.16;5052702;28;20687;-72
2021/01/15 01:46:08;;;;;;;17.63;10.63;;;;;;;-144.99;100.00;52545.94;5059703;28;20718;-71
2021/01/15 01:48:34;;;;;;;16.00;10.93;;;;;;;-144.99;100.00;52566.31;5059000;28;20651;-71
2021/01/15 01:51:03;;;;;;;15.23;11.40;;;;;;;-144.99;100.00;52578.53;5053751;28;21015;-71
2021/01/15 01:53:31;;;;;;;13.67;11.27;;;;;;;-144.99;100.00;52562.25;5052482;28;20749;-72
2021/01/15 01:56:01;;;;;;;13.60;10.07;;;;;;;-144.99;100.00;52596.88;5064608;28;20681;-73
2021/01/15 01:58:28;;;;;;;14.40;11.33;;;;;;;-144.99;100.00;52603.00;5056698;28;20621;-73
2021/01/15 02:00:59;;;;;;;17.50;11.13;;;;;;;-144.99;100.00;52582.63;5052388;28;20724;-73
2021/01/15 02:03:26;;;;;;;13.10;9.90;;;;;;;-144.99;100.00;52570.38;5063436;28;20763;-75
2021/01/15 02:05:52;;;;;;;14.83;10.37;;;;;;;-144.99;100.00;52598.94;5051821;28;20656;-73
2021/01/15 02:08:20;;;;;;;14.60;11.80;;;;;;;-144.99;100.00;52588.75;5053318;28;20658;-73
2021/01/15 02:10:54;;;;;;;17.57;11.07;;;;;;;-144.99;100.00;52594.84;5072081;28;21179;-76
2021/01/15 02:13:31;;;;;;;15.27;9.60;;;;;;;-144.99;100.00;52574.47;5062955;28;21205;-74
2021/01/15 02:16:02;;;;;;;17.87;13.87;;;;;;;-144.99;100.00;52578.53;5052201;28;20670;-74
2021/01/15 02:18:33;;;;;;;15.23;10.90;;;;;;;-144.99;100.00;52607.09;5050379;28;20715;-74
2021/01/15 02:21:31;;;;;;;15.23;9.93;;;;;;;-144.99;100.00;52586.69;5068712;28;20631;-73
2021/01/15 02:24:05;;;;;;;15.90;9.33;;;;;;;-144.99;100.00;52586.69;5071920;28;20701;-72
2021/01/15 02:27:09;;;;;;;12.47;9.63;;;;;;;-144.99;100.00;52635.63;5069119;28;20617;-73
2021/01/15 02:29:40;;;;;;;13.67;9.37;;;;;;;-144.99;100.00;52603.00;5060387;28;20644;-73
2021/01/15 02:32:32;;;;;;;11.30;9.70;;;;;;;-144.99;100.00;52570.38;5070806;28;21270;-72
2021/01/15 02:35:06;;;;;;;11.17;8.47;;;;;;;-144.99;100.00;52603.00;5054205;28;20778;-71
2021/01/15 02:37:45;;;;;;;17.47;8.63;;;;;;;-144.99;100.00;52545.94;5050405;28;20634;-71
2021/01/15 02:40:18;;;;;;;16.23;9.47;;;;;;;-144.99;100.00;52562.25;5055704;28;20717;-75
2021/01/15 02:42:45;;;;;;;13.80;8.20;;;;;;;-144.99;100.00;52590.78;5069458;28;20622;-72
2021/01/15 02:45:13;;;;;;;14.30;9.30;;;;;;;-144.99;100.00;52541.84;5071260;28;20642;-73
2021/01/15 02:47:48;;;;;;;10.73;7.50;;;;;;;-144.99;100.00;52590.78;5070721;28;20669;-72
2021/01/15 02:50:15;;;;;;;9.50;6.87;;;;;;;-144.99;100.00;52588.75;5056498;28;20973;-74
2021/01/15 02:52:42;;;;;;;12.23;6.27;;;;;;;-144.99;100.00;52566.31;5059310;28;20749;-72
2021/01/15 02:55:10;;;;;;;17.33;8.43;;;;;;;-144.99;100.00;52592.81;5070095;28;20732;-72
2021/01/15 02:57:36;;;;;;;11.07;7.87;;;;;;;-144.99;100.00;52554.09;5051135;28;20734;-72
2021/01/15 03:00:04;;;;;;;13.20;8.50;;;;;;;-144.99;100.00;52562.25;5053269;28;21045;-73
2021/01/15 03:02:37;;;;;;;13.77;6.80;;;;;;;-144.99;100.00;52570.38;5067935;28;20654;-71
2021/01/15 03:05:10;;;;;;;14.27;6.87;;;;;;;-144.99;100.00;52582.63;5054380;28;20748;-73
2021/01/15 03:07:39;;;;;;;8.93;6.47;;;;;;;-144.99;100.00;52541.84;5051550;28;21165;-72
2021/01/15 03:10:06;;;;;;;14.37;7.77;;;;;;;-144.99;100.00;52558.16;5051248;28;20664;-72
2021/01/15 03:12:34;;;;;;;10.87;7.47;;;;;;;-144.99;100.00;52617.28;5069448;28;20690;-72
2021/01/15 03:15:01;;;;;;;14.57;9.13;;;;;;;-144.99;100.00;52570.38;5053219;28;20748;-75
2021/01/15 03:17:33;;;;;;;10.40;7.17;;;;;;;-144.99;100.00;52570.38;5051052;28;21081;-72
2021/01/15 03:20:01;;;;;;;9.10;6.83;;;;;;;-144.99;100.00;52554.09;5049309;28;20648;-74
2021/01/15 03:22:29;;;;;;;9.93;7.00;;;;;;;-144.99;100.00;52574.47;5052269;28;20666;-73
2021/01/15 03:24:56;;;;;;;14.93;7.67;;;;;;;-144.99;100.00;52582.63;5057373;28;21246;-74
2021/01/15 03:27:23;;;;;;;14.17;9.67;;;;;;;-144.99;100.00;52574.47;5067918;28;20718;-74
2021/01/15 03:29:50;;;;;;;10.83;7.37;;;;;;;-144.99;100.00;52586.69;5054681;28;21189;-74
2021/01/15 03:32:16;;;;;;;10.70;7.20;;;;;;;-144.99;100.00;52558.16;5057504;28;20643;-74
2021/01/15 03:34:42;;;;;;;10.83;8.13;;;;;;;-144.99;100.00;52578.53;5064029;28;20810;-72
2021/01/15 03:37:08;;;;;;;11.10;6.97;;;;;;;-144.99;100.00;52621.34;5049989;28;21181;-73
2021/01/15 03:39:35;;;;;;;12.97;6.60;;;;;;;-144.99;100.00;52527.59;5051890;28;20796;-72
2021/01/15 03:42:02;;;;;;;13.37;6.47;;;;;;;-144.99;100.00;52566.31;5050416;28;21253;-72
2021/01/15 03:44:28;;;;;;;12.73;8.60;;;;;;;-144.99;100.00;52570.38;5063880;28;21038;-72
2021/01/15 03:46:55;;;;;;;10.77;6.67;;;;;;;-144.99;100.00;52586.69;5061978;28;20734;-71
2021/01/15 03:49:21;;;;;;;12.90;6.83;;;;;;;-144.99;100.00;52594.84;5067436;28;21238;-71
2021/01/15 03:51:47;;;;;;;8.53;5.83;;;;;;;-144.99;100.00;52566.31;5069912;28;20766;-71
2021/01/15 03:54:14;;;;;;;12.13;7.50;;;;;;;-144.99;100.00;52607.09;5061789;28;20654;-73
2021/01/15 03:56:41;;;;;;;12.83;4.90;;;;;;;-144.99;100.00;52550.00;5056855;28;20725;-71
2021/01/15 03:59:07;;;;;;;10.30;6.23;;;;;;;-144.99;100.00;52603.00;5050483;28;20779;-72
2021/01/15 04:01:35;;;;;;;8.73;6.00;;;;;;;-144.99;100.00;52564.28;5049868;28;21015;-72
2021/01/15 04:04:01;;;;;;;13.30;7.70;;;;;;;-144.99;100.00;52582.63;5055982;28;20745;-73
2021/01/15 04:06:28;;;;;;;11.20;5.13;;;;;;;-144.99;100.00;52619.31;5069823;28;20630;-72
2021/01/15 04:08:54;;;;;;;12.10;6.40;;;;;;;-144.99;100.00;52566.31;5069748;28;20630;-74
2021/01/15 04:11:20;;;;;;;15.03;6.80;;;;;;;-144.99;100.00;52594.84;5069266;28;21235;-70
2021/01/15 04:13:47;;;;;;;9.73;6.73;;;;;;;-144.99;100.00;52607.09;5068559;28;20770;-72
2021/01/15 04:16:14;;;;;;;11.23;7.03;;;;;;;-144.99;100.00;52588.75;5063594;28;20773;-71
2021/01/15 04:18:40;;;;;;;8.73;6.13;;;;;;;-144.99;100.00;52613.19;5068245;28;20658;-74
2021/01/15 04:21:07;;;;;;;9.63;5.70;;;;;;;-144.99;100.00;52564.28;5068643;28;20722;-74
2021/01/15 04:23:33;;;;;;;9.73;5.63;;;;;;;-144.99;100.00;52588.75;5061085;28;20725;-72
2021/01/15 04:25:59;;;;;;;14.13;7.40;;;;;;;-144.99;100.00;52570.38;5062980;28;20662;-72
2021/01/15 04:28:25;;;;;;;7.90;5.97;;;;;;;-144.99;100.00;52615.25;5060387;28;20968;-71
2021/01/15 04:30:52;;;;;;;18.57;7.73;;;;;;;-144.99;100.00;52594.84;5066687;28;20666;-72
2021/01/15 04:33:18;;;;;;;14.10;8.03;;;;;;;-144.99;100.00;52582.63;5048170;28;21095;-73
2021/01/15 04:35:45;;;;;;;10.10;6.23;;;;;;;-144.99;100.00;52570.38;5052945;28;20731;-75
2021/01/15 04:38:11;;;;;;;12.07;5.93;;;;;;;-144.99;100.00;52574.47;5056481;28;20712;-72
2021/01/15 04:40:37;;;;;;;11.50;6.93;;;;;;;-144.99;100.00;52619.31;5069095;28;20662;-72
2021/01/15 04:43:05;;;;;;;8.53;5.53;;;;;;;-144.99;100.00;52619.31;5049819;28;21236;-72
2021/01/15 04:45:32;;;;;;;9.17;5.97;;;;;;;-144.99;100.00;52574.47;5066966;28;21231;-74
2021/01/15 04:48:00;;;;;;;8.93;5.93;;;;;;;-144.99;100.00;52615.25;5060914;28;20711;-73
2021/01/15 04:50:27;;;;;;;9.37;5.57;;;;;;;-144.99;100.00;52603.00;5062984;28;20718;-73
2021/01/15 04:52:54;;;;;;;9.80;6.57;;;;;;;-144.99;100.00;52574.47;5060305;28;20733;-75
2021/01/15 04:55:22;;;;;;;12.70;6.87;;;;;;;-144.99;100.00;52582.63;5061386;28;20682;-74
2021/01/15 04:57:50;;;;;;;9.97;5.77;;;;;;;-144.99;100.00;52590.78;5048468;28;20619;-74
2021/01/15 05:00:19;;;;;;;9.87;6.53;;;;;;;-144.99;100.00;52578.53;5053221;28;20714;-73
2021/01/15 05:02:47;;;;;;;13.13;7.20;;;;;;;-144.99;100.00;52517.41;5063606;28;20978;-77
2021/01/15 05:05:24;;;;;;;9.47;5.67;;;;;;;-144.99;100.00;52547.97;5050804;28;21222;-74
2021/01/15 05:08:25;;;;;;;10.50;6.77;;;;;;;-144.99;100.00;52598.94;5047980;28;21159;-74
2021/01/15 05:10:53;;;;;;;9.70;6.47;;;;;;;-144.99;100.00;52594.84;5016784;28;20717;-74
2021/01/15 05:13:19;;;;;;;9.00;5.30;;;;;;;-144.99;99.92;52605.03;5061584;28;20713;-73
2021/01/15 05:15:47;;;;;;;9.40;7.37;;;;;;;-144.99;100.00;52562.25;5050357;28;20730;-72
2021/01/15 05:18:13;;;;;;;11.60;7.77;;;;;;;-144.99;99.95;52611.16;5051738;28;20713;-72
2021/01/15 05:20:41;;;;;;;10.40;6.50;;;;;;;-144.99;99.89;52568.34;5067895;28;20718;-73
2021/01/15 05:23:08;;;;;;;12.43;8.07;;;;;;;-144.99;99.80;52533.69;5050974;28;20626;-71
2021/01/15 05:25:35;;;;;;;8.67;7.30;;;;;;;-144.99;99.59;52578.53;5058530;28;20646;-71
2021/01/15 05:28:02;;;;;;;12.10;7.47;;;;;;;-144.99;99.58;52590.78;5064267;28;20631;-73
2021/01/15 05:30:29;;;;;;;9.73;6.57;;;;;;;-144.99;99.38;52578.53;5051616;28;20624;-72
2021/01/15 05:32:57;;;;;;;10.70;7.07;;;;;;;-144.99;99.03;52586.69;5047569;28;20931;-73
2021/01/15 05:35:40;;;;;;;11.93;8.43;;;;;;;-144.99;99.24;52566.31;5051721;28;21053;-74
2021/01/15 05:38:07;;;;;;;12.07;7.87;;;;;;;-144.99;99.05;52554.09;5061361;28;20623;-74
2021/01/15 05:40:38;;;;;;;8.10;6.13;;;;;;;-144.99;98.82;52574.47;5065151;28;20797;-73
2021/01/15 05:43:05;;;;;;;12.10;7.30;;;;;;;-144.99;98.87;52623.38;5048337;28;20611;-73
2021/01/15 05:45:32;;;;;;;10.40;8.33;;;;;;;-144.99;98.76;52603.00;5048387;28;21054;-74
2021/01/15 05:47:58;;;;;;;10.53;6.53;;;;;;;-144.99;98.81;52582.63;5048418;28;20616;-74
2021/01/15 05:50:39;;;;;;;12.90;8.30;;;;;;;-144.99;98.51;52594.84;5061735;28;20623;-74
2021/01/15 05:53:05;;;;;;;11.83;7.80;;;;;;;-144.99;98.53;52568.34;5068433;28;20643;-76
2021/01/15 05:55:32;;;;;;;10.80;7.83;;;;;;;-144.99;98.53;52560.19;5064806;28;20663;-74
2021/01/15 05:58:09;;;;;;;14.77;8.43;;;;;;;-144.99;98.42;52586.69;5052027;28;20651;-76
2021/01/15 06:00:38;;;;;;;11.00;7.17;;;;;;;-144.99;98.34;52598.94;5067270;28;20627;-74
2021/01/15 06:03:07;;;;;;;10.03;6.40;;;;;;;-144.99;98.28;52558.16;5067633;28;20630;-75
2021/01/15 06:05:35;;;;;;;11.70;7.57;;;;;;;-144.99;98.13;52558.16;5068284;28;21032;-74
2021/01/15 06:08:02;;;;;;;13.63;8.83;;;;;;;-144.99;97.89;52607.09;5054325;28;20663;-75
2021/01/15 06:10:40;;;;;;;14.47;8.13;;;;;;;-144.99;98.04;52572.44;5056458;28;20729;-74
2021/01/15 06:13:07;;;;;;;16.40;8.20;;;;;;;-144.99;97.99;52603.00;5067911;28;20642;-75
2021/01/15 06:15:47;;;;;;;12.93;8.93;;;;;;;-144.99;97.89;52607.09;5061525;28;20706;-77
2021/01/15 06:18:20;;;;;;;10.77;7.37;;;;;;;-144.99;97.94;52570.38;5067088;28;20830;-72
2021/01/15 06:20:46;;;;;;;12.90;8.73;;;;;;;-144.99;97.50;52570.38;5068771;28;20642;-76
2021/01/15 06:23:14;;;;;;;13.80;9.33;;;;;;;-144.99;97.31;52560.19;5053226;28;20634;-73
2021/01/15 06:25:57;;;;;;;11.50;7.70;;;;;;;-144.99;97.48;52578.53;5065824;28;20627;-74
2021/01/15 06:28:33;;;;;;;16.60;8.53;;;;;;;-144.99;97.23;52568.34;5069185;28;20654;-73
2021/01/15 06:31:00;;;;;;;12.40;8.20;;;;;;;-144.99;97.10;52588.75;5070281;28;20994;-74
2021/01/15 06:33:26;;;;;;;13.37;7.87;;;;;;;-144.99;96.87;52554.09;5050806;28;20707;-74
2021/01/15 06:35:53;;;;;;;12.53;9.13;;;;;;;-144.99;97.08;52552.03;5055751;28;20722;-74
2021/01/15 06:38:21;;;;;;;12.97;8.20;;;;;;;-144.99;97.18;52556.13;5052141;28;20685;-73
2021/01/15 06:40:48;;;;;;;9.67;7.77;;;;;;;-144.99;97.16;52582.63;5057199;28;20643;-72
2021/01/15 06:43:22;;;;;;;11.63;8.80;;;;;;;-144.99;97.06;52588.75;5071248;28;20627;-74
2021/01/15 06:45:50;;;;;;;13.70;7.87;;;;;;;-144.99;96.98;52574.47;5071165;28;20695;-73
2021/01/15 06:48:21;;;;;;;12.07;8.53;;;;;;;-144.99;97.01;52611.16;5069813;28;20688;-73
2021/01/15 06:50:49;;;;;;;10.97;7.80;;;;;;;-144.99;96.97;52629.50;5070315;28;20965;-73
2021/01/15 06:53:19;;;;;;;10.90;7.63;;;;;;;-144.99;96.83;52533.69;5059442;28;20659;-71
2021/01/15 06:55:47;;;;;;;9.57;6.80;;;;;;;-144.99;96.85;52605.03;5063323;28;20624;-72
2021/01/15 06:58:22;;;;;;;14.30;7.97;;;;;;;-144.99;96.96;52623.38;5050938;28;21196;-73
2021/01/15 07:01:19;;;;;;;9.57;8.13;;;;;;;-144.99;97.00;52590.78;5063928;28;21017;-72
2021/01/15 07:04:16;;;;;;;15.23;8.40;;;;;;;-144.99;96.56;52594.84;5044682;28;20833;-73
2021/01/15 07:07:03;;;;;;;13.83;10.43;;;;;;;-144.99;96.64;52570.38;5050926;28;20623;-73
2021/01/15 07:09:31;;;;;;;11.67;8.37;;;;;;;-144.99;96.54;52582.63;5063105;28;20642;-73
2021/01/15 07:12:04;;;;;;;11.97;10.20;;;;;;;-144.99;97.22;52582.63;5070215;28;20747;-73
2021/01/15 07:14:42;;;;;;;14.43;10.00;;;;;;;-144.99;96.92;52611.16;5056554;28;20647;-72
2021/01/15 07:17:18;;;;;;;15.70;10.53;;;;;;;-144.99;97.10;52582.63;5051208;28;20674;-72
2021/01/15 07:19:45;;;;;;;16.47;10.10;;;;;;;-144.99;97.08;52590.78;5049251;28;21004;-72
2021/01/15 07:22:13;;;;;;;14.43;10.07;;;;;;;-144.99;97.01;52541.84;5056115;28;20623;-74
2021/01/15 07:24:41;;;;;;;15.20;10.67;;;;;;;-144.99;96.96;52584.66;5084207;22;20700;-73
2021/01/15 07:27:09;;;;;;;13.67;9.67;;;;;;;-144.99;96.86;52574.47;5073253;28;20702;-73
2021/01/15 07:29:48;;;;;;;18.07;11.33;;;;;;;-144.99;96.83;52607.09;5067706;28;20630;-74
2021/01/15 07:32:22;;;;;;;13.63;9.87;;;;;;;-144.99;96.87;52580.59;5074141;28;20654;-73
2021/01/15 07:34:51;;;;;;;14.43;10.73;;;;;;;-144.99;96.56;52584.66;5047441;28;20718;-72
2021/01/15 07:37:19;;;;;;;15.83;10.43;;;;;;;-144.99;96.72;52566.31;5036709;28;20703;-73
2021/01/15 07:40:06;;;;;;;14.67;10.30;;;;;;;-144.99;96.04;52615.25;5038550;28;20722;-73
2021/01/15 07:42:53;;;;;;;15.37;11.07;;;;;;;-144.99;96.07;52607.09;5036155;28;20728;-73
2021/01/15 07:45:43;;;;;;;18.83;12.27;;;;;;;-144.99;95.57;52631.53;5043280;28;20679;-73
2021/01/15 07:48:11;;;;;;;18.37;11.13;;;;;;;-144.99;95.71;52578.53;5013485;28;20677;-73
2021/01/15 07:50:40;;;;;;;18.30;10.80;;;;;;;-144.99;95.19;52619.31;5030594;28;20664;-73
2021/01/15 07:53:27;;;;;;;18.80;9.63;;;;;;;-144.99;95.08;52586.69;5031799;28;20659;-73
2021/01/15 07:55:56;;;;;;;13.97;9.23;;;;;;;-144.99;94.93;52576.50;5044528;28;20735;-73
2021/01/15 07:58:23;;;;;;;16.77;9.93;;;;;;;-144.99;94.72;52554.09;5050621;28;20628;-74
2021/01/15 08:00:50;;;;;;;18.33;10.97;;;;;;;-144.99;94.54;52574.47;5030447;28;20624;-76
2021/01/15 08:03:17;;;;;;;15.90;11.30;;;;;;;-144.99;94.28;52603.00;5029691;28;20728;-75
2021/01/15 08:05:45;;;;;;;17.57;11.13;;;;;;;-144.99;94.39;52582.63;5032034;28;20644;-76
2021/01/15 08:08:13;;;;;;;14.00;9.67;;;;;;;-144.99;95.31;52582.63;5045146;28;20994;-78
2021/01/15 08:10:50;;;;;;;13.30;9.57;;;;;;;-144.99;96.24;52558.16;5032292;28;21159;-78
2021/01/15 08:13:24;;;;;;;15.27;9.57;;;;;;;-144.99;98.39;52617.28;5047871;28;20660;-76
2021/01/15 08:15:51;;;;;;;15.37;10.03;;;;;;;-144.99;97.85;52574.47;5036066;28;20736;-74
2021/01/15 08:18:19;;;;;;;16.10;11.10;;;;;;;-144.99;98.01;52598.94;5048826;28;20620;-78
2021/01/15 08:20:50;;;;;;;16.37;11.20;;;;;;;-144.99;99.48;52578.53;5040995;28;20639;-77
2021/01/15 08:23:24;;;;;;;14.97;10.07;;;;;;;-144.99;98.67;52545.94;5063083;28;21038;-78
2021/01/15 08:25:53;;;;;;;16.00;10.23;;;;;;;-144.99;98.96;52547.97;5057655;28;20634;-77
2021/01/15 08:28:20;;;;;;;17.47;11.33;;;;;;;-144.99;99.20;52578.53;5052966;28;21102;-78
2021/01/15 08:30:59;;;;;;;17.10;10.97;;;;;;;-144.99;97.38;52607.09;5033629;28;20629;-79
2021/01/15 08:33:27;;;;;;;16.30;11.07;;;;;;;-144.99;100.00;52582.63;5049541;28;20667;-78
2021/01/15 08:35:58;;;;;;;22.23;11.43;;;;;;;-144.99;97.98;52541.84;5051542;28;21601;-78
2021/01/15 08:38:33;;;;;;;14.10;9.97;;;;;;;-144.99;95.56;52578.53;5049027;28;20676;-79
2021/01/15 08:41:00;;;;;;;16.90;10.97;;;;;;;-144.99;93.62;52594.84;5052794;28;20629;-78
2021/01/15 08:43:27;;;;;;;17.50;10.90;;;;;;;-144.99;93.40;52558.16;5031637;28;20632;-79
2021/01/15 08:45:54;;;;;;;14.20;10.07;;;;;;;-144.99;92.76;52580.59;5048778;28;21028;-78
2021/01/15 08:48:21;;;;;;;15.50;10.43;;;;;;;-144.99;92.44;52582.63;5050166;28;20631;-78
2021/01/15 08:50:49;;;;;;;16.17;9.93;;;;;;;-144.99;91.53;52574.47;5050078;28;20620;-79
2021/01/15 08:53:23;;;;;;;16.53;9.93;;;;;;;-144.99;90.30;52582.63;5044205;28;20751;-80
2021/01/15 08:55:51;;;;;;;15.97;11.23;;;;;;;-144.99;91.02;52582.63;5051958;28;21189;-77
2021/01/15 08:58:18;;;;;;;17.33;9.87;;;;;;;-144.99;91.25;52570.38;5052082;28;20631;-79
2021/01/15 09:00:44;;;;;;;15.27;9.37;;;;;;;-144.99;90.79;52603.00;5051096;28;20681;-78
2021/01/15 09:03:17;;;;;;;12.77;8.90;;;;;;;-144.99;90.78;52580.59;5035573;28;20702;-76
2021/01/15 09:05:47;;;;;;;15.47;10.83;;;;;;;-144.99;90.65;52578.53;5039130;28;20675;-76
2021/01/15 09:08:17;;;;;;;15.07;11.60;;;;;;;-144.99;90.91;52586.69;5049290;28;20727;-78
2021/01/15 09:10:48;;;;;;;14.37;9.53;;;;;;;-144.99;90.14;52603.00;5035166;28;20732;-77
2021/01/15 09:13:16;;;;;;;17.57;9.97;;;;;;;-144.99;90.53;52594.84;5042880;28;20643;-77
2021/01/15 09:15:42;;;;;;;14.47;9.37;;;;;;;-144.99;90.43;52598.94;5041030;28;20660;-77
2021/01/15 09:18:09;;;;;;;14.37;8.43;;;;;;;-144.99;89.98;52572.44;5043733;28;20666;-79
2021/01/15 09:20:36;;;;;;;14.47;9.77;;;;;;;-144.99;90.00;52574.47;5043853;28;21288;-79
2021/01/15 09:23:02;;;;;;;16.97;10.40;;;;;;;-144.99;90.24;52541.84;5054319;28;20627;-79
2021/01/15 09:25:29;;;;;;;13.93;9.53;;;;;;;-144.99;90.16;52590.78;5046823;28;20674;-78
2021/01/15 09:27:56;;;;;;;11.57;9.77;;;;;;;-144.99;90.21;52574.47;5060320;28;20627;-76
2021/01/15 09:30:23;;;;;;;25.33;15.10;;;;;;;-144.99;91.18;52578.53;5033618;28;21028;-78
2021/01/15 09:32:49;;;;;;;13.57;9.00;;;;;;;-144.99;90.55;52570.38;5042359;28;20667;-78
2021/01/15 09:35:17;;;;;;;12.60;9.67;;;;;;;-144.99;90.26;52578.53;5044361;28;20652;-78
2021/01/15 09:37:44;;;;;;;17.83;10.47;;;;;;;-144.99;90.07;52558.16;5050635;28;20811;-78
2021/01/15 09:40:10;;;;;;;17.27;9.63;;;;;;;-144.99;90.20;52594.84;5048763;28;20628;-79
2021/01/15 09:42:37;;;;;;;14.60;11.00;;;;;;;-144.99;90.15;52590.78;5049364;28;20613;-78
2021/01/15 09:45:05;;;;;;;13.67;9.53;;;;;;;-144.99;90.09;52560.19;5037039;28;20682;-78
2021/01/15 09:47:32;;;;;;;12.93;8.77;;;;;;;-144.99;89.93;52584.66;5053668;28;20616;-77
2021/01/15 09:49:58;;;;;;;14.90;9.23;;;;;;;-144.99;90.29;52603.00;5055008;28;20635;-79
2021/01/15 09:52:25;;;;;;;13.93;10.53;;;;;;;-144.99;90.37;52541.84;5047677;28;20722;-79
2021/01/15 09:54:51;;;;;;;13.40;10.43;;;;;;;-144.99;90.41;52584.66;5045444;28;20766;-78
2021/01/15 09:57:17;;;;;;;15.10;9.57;;;;;;;-144.99;90.54;52590.78;5052812;28;20629;-77
2021/01/15 09:59:45;;;;;;;17.93;9.97;;;;;;;-144.99;90.54;52547.97;5042868;28;21205;-78
2021/01/15 10:02:11;;;;;;;17.17;10.17;;;;;;;-144.99;90.63;52586.69;5036140;28;20638;-78
2021/01/15 10:04:37;;;;;;;14.77;10.53;;;;;;;-144.99;90.67;52603.00;5042379;28;20667;-83
2021/01/15 10:07:03;;;;;;;12.57;8.10;;;;;;;-144.99;92.51;52586.69;5058673;28;20624;-75
2021/01/15 10:09:29;;;;;;;16.00;9.90;;;;;;;-144.99;92.21;52594.84;5053620;28;20629;-74
2021/01/15 10:11:56;;;;;;;14.13;9.70;;;;;;;-144.99;92.29;52598.94;5055988;28;20690;-75
2021/01/15 10:14:24;;;;;;;13.33;10.00;;;;;;;-144.99;92.19;52603.00;5059252;28;20732;-73
2021/01/15 10:16:51;;;;;;;14.23;10.20;;;;;;;-144.99;91.46;52537.78;5060229;28;20608;-75
2021/01/15 10:19:17;;;;;;;14.30;9.70;;;;;;;-144.99;90.72;52586.69;5045053;28;20723;-75
2021/01/15 10:21:44;;;;;;;13.80;9.97;;;;;;;-144.99;90.76;52598.94;5048949;28;20678;-78
2021/01/15 10:24:12;;;;;;;13.97;9.37;;;;;;;-144.99;90.45;52605.03;5045810;28;21393;-77
2021/01/15 10:26:39;;;;;;;15.27;9.17;;;;;;;-144.99;90.37;52586.69;5055331;28;21026;-76
2021/01/15 10:29:07;;;;;;;11.97;8.77;;;;;;;-144.99;90.04;52611.16;5045258;28;20798;-77
2021/01/15 10:31:34;;;;;;;12.60;8.50;;;;;;;-144.99;89.92;52558.16;5052466;28;20608;-75
2021/01/15 10:34:03;;;;;;;14.37;10.57;;;;;;;-144.99;90.04;52615.25;5043475;28;21256;-76
2021/01/15 10:36:30;;;;;;;12.43;8.17;;;;;;;-144.99;89.69;52582.63;5035771;28;20640;-77
2021/01/15 10:38:57;;;;;;;11.90;8.03;;;;;;;-144.99;89.62;52558.16;5034922;28;20613;-76
2021/01/15 10:41:30;;;;;;;12.27;7.77;;;;;;;-144.99;89.84;52580.59;5042722;28;20621;-76
2021/01/15 10:43:57;;;;;;;9.87;7.67;;;;;;;-144.99;89.48;52590.78;5034410;28;21032;-76
2021/01/15 10:46:31;;;;;;;9.67;6.87;;;;;;;-144.99;89.26;52558.16;5034796;28;20629;-77
2021/01/15 10:48:58;;;;;;;9.60;7.27;;;;;;;-144.99;89.43;52531.66;5040519;28;20616;-75
2021/01/15 10:51:25;;;;;;;12.17;7.37;;;;;;;-144.99;89.46;52566.31;5054573;28;20685;-75
2021/01/15 10:53:51;;;;;;;10.97;8.03;;;;;;;-144.99;89.42;52584.66;5044938;28;20710;-76
2021/01/15 10:56:17;;;;;;;11.70;7.17;;;;;;;-144.99;89.56;52598.94;5039875;28;20620;-76
2021/01/15 10:58:44;;;;;;;7.73;6.37;;;;;;;-144.99;89.47;52554.09;5050058;28;20632;-75
2021/01/15 11:01:10;;;;;;;12.00;7.13;;;;;;;-144.99;89.78;52560.19;5042680;28;21033;-76
2021/01/15 11:03:36;;;;;;;13.33;8.13;;;;;;;-144.99;89.98;52564.28;5036331;28;20624;-78
2021/01/15 11:06:03;;;;;;;12.67;7.43;;;;;;;-144.99;90.04;52598.94;5054388;28;20628;-76
2021/01/15 11:08:31;;;;;;;12.67;8.07;;;;;;;-144.99;90.79;52574.47;5051534;28;20636;-76
2021/01/15 11:10:57;;;;;;;12.97;8.20;;;;;;;-144.99;90.45;52554.09;5044621;28;20619;-75
2021/01/15 11:13:24;;;;;;;12.40;8.13;;;;;;;-144.99;90.23;52586.69;5056199;28;21229;-75